Time;durP1;ratioP1;P1;durP2;ratioP2;P2;SDS_P1;SDS_P2;PMS_P1;PMS_P2;Temp;Humidity;BMP_temperature;BMP_pressure;BME280_temperature;BME280_humidity;BME280_pressure;Samples;Min_cycle;Max_cycle;Signal;HPM_P1;HPM_P2
2023/07/30 00:02:21;;;;;;;0.68;0.68;;;19.40;99.90;;;;;;5061620;28;20667;-86
2023/07/30 00:04:47;;;;;;;0.10;0.10;;;19.20;99.90;;;;;;5060446;28;20020;-80
2023/07/30 00:07:13;;;;;;;0.10;0.10;;;19.20;99.90;;;;;;5060221;28;20075;-82
2023/07/30 00:09:40;;;;;;;0.10;0.10;;;19.20;99.90;;;;;;5060207;28;20017;-76
2023/07/30 00:12:07;;;;;;;0.10;0.10;;;19.30;99.90;;;;;;5059961;28;20029;-82
2023/07/30 00:14:33;;;;;;;0.10;0.10;;;19.40;99.90;;;;;;5059497;28;20569;-89
2023/07/30 00:16:59;;;;;;;0.10;0.10;;;19.40;99.90;;;;;;5042819;28;20121;-79
2023/07/30 00:19:24;;;;;;;0.10;0.10;;;19.40;99.90;;;;;;5059992;28;20426;-85
2023/07/30 00:21:50;;;;;;;0.10;0.10;;;19.50;99.90;;;;;;5041080;28;20040;-88
2023/07/30 00:24:16;;;;;;;0.10;0.10;;;19.40;99.90;;;;;;5041700;28;20013;-73
2023/07/30 00:26:42;;;;;;;0.20;0.20;;;19.20;99.90;;;;;;5059990;28;20042;-86
2023/07/30 00:29:08;;;;;;;0.10;0.10;;;19.10;99.90;;;;;;5059896;28;20024;-74
2023/07/30 00:31:33;;;;;;;0.15;0.15;;;19.00;99.90;;;;;;5059357;28;20025;-81
2023/07/30 00:33:59;;;;;;;0.32;0.32;;;19.00;99.90;;;;;;5059426;28;20647;-77
2023/07/30 00:36:25;;;;;;;0.10;0.10;;;19.00;99.90;;;;;;5059748;28;20154;-76
2023/07/30 00:38:51;;;;;;;0.10;0.10;;;19.20;99.90;;;;;;5059058;28;20640;-76
2023/07/30 00:41:16;;;;;;;0.10;0.10;;;19.10;99.90;;;;;;5059040;28;20020;-75
2023/07/30 00:43:42;;;;;;;0.10;0.10;;;19.10;99.90;;;;;;5060341;28;20055;-78
2023/07/30 00:46:08;;;;;;;0.10;0.10;;;19.10;99.90;;;;;;5065347;28;20671;-85
2023/07/30 00:48:34;;;;;;;0.10;0.10;;;19.10;99.90;;;;;;5064231;28;20092;-86
2023/07/30 00:51:00;;;;;;;1.30;1.27;;;19.20;99.90;;;;;;5068163;28;20074;-75
2023/07/30 00:53:30;;;;;;;0.10;0.10;;;19.20;99.90;;;;;;5064522;28;20264;-81
2023/07/30 00:55:56;;;;;;;0.10;0.10;;;19.10;99.90;;;;;;5064082;28;20017;-86
2023/07/30 00:58:22;;;;;;;0.10;0.10;;;19.80;99.90;;;;;;5065850;28;20051;-76
2023/07/30 01:00:48;;;;;;;0.00;0.00;;;19.90;99.90;;;;;;5061937;28;20019;-74
2023/07/30 01:03:14;;;;;;;0.20;0.20;;;19.50;99.90;;;;;;5061296;28;20028;-82
2023/07/30 01:05:40;;;;;;;0.10;0.10;;;19.40;99.90;;;;;;5044340;28;20714;-84
2023/07/30 01:08:05;;;;;;;0.20;0.20;;;19.70;99.90;;;;;;5061170;28;20462;-79
2023/07/30 01:10:34;;;;;;;0.10;0.10;;;19.20;99.90;;;;;;5058376;28;20020;-74
2023/07/30 01:13:03;;;;;;;0.10;0.10;;;19.50;99.90;;;;;;5059802;28;20029;-79
2023/07/30 01:15:29;;;;;;;0.10;0.10;;;19.00;99.90;;;;;;5058447;28;20040;-83
2023/07/30 01:17:55;;;;;;;0.22;0.22;;;18.90;99.90;;;;;;5041263;28;20219;-75
2023/07/30 01:20:21;;;;;;;0.10;0.10;;;19.30;99.90;;;;;;5059183;28;20125;-78
2023/07/30 01:22:47;;;;;;;0.05;0.05;;;19.10;99.90;;;;;;5063561;28;20051;-87
2023/07/30 01:25:14;;;;;;;0.17;0.17;;;19.20;99.90;;;;;;5059433;28;20008;-78
2023/07/30 01:27:47;;;;;;;0.10;0.10;;;19.00;99.90;;;;;;5058807;28;20252;-74
2023/07/30 01:30:25;;;;;;;;;;;19.00;99.90;;;;;;5059627;28;20100;-87
2023/07/30 01:32:52;;;;;;;0.10;0.10;;;18.90;99.90;;;;;;5059957;28;19913;-81
2023/07/30 01:35:24;;;;;;;4.13;3.55;;;18.80;99.90;;;;;;5059287;28;20040;-73
2023/07/30 01:37:51;;;;;;;0.10;0.10;;;20.00;99.90;;;;;;5044206;28;20036;-73
2023/07/30 01:40:17;;;;;;;0.00;0.00;;;18.70;99.90;;;;;;5048932;28;20025;-79
2023/07/30 01:42:43;;;;;;;0.28;0.28;;;18.50;99.90;;;;;;5066142;28;20083;-77
2023/07/30 01:45:09;;;;;;;0.20;0.20;;;18.80;99.90;;;;;;5063676;28;20036;-88
2023/07/30 01:47:34;;;;;;;0.10;0.10;;;18.90;99.90;;;;;;5063807;28;20099;-89
2023/07/30 01:50:00;;;;;;;0.10;0.10;;;18.70;99.90;;;;;;5066117;28;20055;-84
2023/07/30 01:52:26;;;;;;;0.30;0.30;;;18.80;99.90;;;;;;5066849;28;20103;-81
2023/07/30 01:54:52;;;;;;;0.10;0.10;;;19.10;99.90;;;;;;5063587;28;20025;-80
2023/07/30 01:57:18;;;;;;;3.05;2.85;;;19.40;99.90;;;;;;5059769;28;20044;-86
2023/07/30 01:59:43;;;;;;;0.10;0.10;;;19.50;99.90;;;;;;5060878;28;20017;-84
2023/07/30 02:02:09;;;;;;;0.10;0.10;;;19.10;99.90;;;;;;5060553;28;20532;-80
2023/07/30 02:04:35;;;;;;;0.13;0.13;;;18.70;99.90;;;;;;5062021;28;20024;-89
2023/07/30 02:07:00;;;;;;;1.00;1.00;;;18.70;99.90;;;;;;5062270;28;20016;-88
2023/07/30 02:09:26;;;;;;;0.20;0.20;;;19.20;99.90;;;;;;5062555;28;20048;-80
2023/07/30 02:11:52;;;;;;;1.80;1.75;;;19.40;99.90;;;;;;5062865;28;20017;-76
2023/07/30 02:14:18;;;;;;;0.10;0.10;;;19.20;99.90;;;;;;5062578;28;20032;-86
2023/07/30 02:16:44;;;;;;;0.20;0.20;;;19.10;99.90;;;;;;5062833;28;20032;-90
2023/07/30 02:19:10;;;;;;;0.10;0.10;;;19.10;99.90;;;;;;5061712;28;20017;-76
2023/07/30 02:21:38;;;;;;;0.57;0.57;;;19.20;99.90;;;;;;5062313;28;20628;-84
2023/07/30 02:24:09;;;;;;;0.63;0.63;;;18.90;99.90;;;;;;5062028;28;20319;-81
2023/07/30 02:26:35;;;;;;;0.20;0.20;;;19.40;99.90;;;;;;5061782;28;20233;-78
2023/07/30 02:29:01;;;;;;;0.10;0.10;;;18.90;99.90;;;;;;5062100;28;20639;-75
2023/07/30 02:31:27;;;;;;;0.35;0.35;;;18.90;99.90;;;;;;5061299;28;20693;-77
2023/07/30 02:33:53;;;;;;;0.10;0.10;;;18.50;99.90;;;;;;5061301;28;20023;-75
2023/07/30 02:36:19;;;;;;;0.47;0.47;;;18.40;99.90;;;;;;5060932;28;20024;-81
2023/07/30 02:38:45;;;;;;;0.20;0.20;;;18.20;99.90;;;;;;5060421;28;20036;-77
2023/07/30 02:41:10;;;;;;;0.68;0.60;;;17.10;99.90;;;;;;5060643;28;20035;-79
2023/07/30 02:43:36;;;;;;;0.00;0.00;;;17.90;99.90;;;;;;5060598;28;20094;-77
2023/07/30 02:46:02;;;;;;;0.10;0.10;;;17.80;99.90;;;;;;5060416;28;20017;-84
2023/07/30 02:48:29;;;;;;;0.40;0.40;;;17.70;99.90;;;;;;5059662;28;20667;-77
2023/07/30 02:50:57;;;;;;;0.08;0.08;;;17.70;99.90;;;;;;5060274;28;20031;-83
2023/07/30 02:53:22;;;;;;;0.17;0.17;;;17.70;99.90;;;;;;5061697;28;20028;-82
2023/07/30 02:55:48;;;;;;;0.10;0.10;;;17.60;99.90;;;;;;5041500;28;20029;-77
2023/07/30 02:58:14;;;;;;;2.72;2.08;;;;;;;;;;5041496;28;20055;-77
2023/07/30 03:00:40;;;;;;;0.20;0.20;;;17.60;99.90;;;;;;5062496;28;20154;-89
2023/07/30 03:03:06;;;;;;;0.35;0.35;;;17.60;99.90;;;;;;5062976;28;20733;-74
2023/07/30 03:05:33;;;;;;;0.10;0.10;;;18.70;99.90;;;;;;5063184;28;20017;-75
2023/07/30 03:07:59;;;;;;;0.10;0.10;;;17.80;99.90;;;;;;5070589;28;20044;-92
2023/07/30 03:10:24;;;;;;;0.10;0.10;;;18.00;99.90;;;;;;5079399;28;20333;-79
2023/07/30 03:12:50;;;;;;;0.10;0.10;;;18.20;99.90;;;;;;5078694;28;20025;-83
2023/07/30 03:15:16;;;;;;;0.38;0.38;;;19.10;99.90;;;;;;5071169;28;20561;-75
2023/07/30 03:17:42;;;;;;;0.10;0.10;;;19.60;99.90;;;;;;5055279;28;20063;-82
2023/07/30 03:20:08;;;;;;;0.10;0.10;;;19.90;99.90;;;;;;5066112;28;20510;-92
2023/07/30 03:22:34;;;;;;;0.20;0.20;;;20.80;99.90;;;;;;5071076;28;20024;-89
2023/07/30 03:25:00;;;;;;;2.75;2.60;;;20.30;99.90;;;;;;5048262;28;20097;-83
2023/07/30 03:27:26;;;;;;;0.00;0.00;;;20.70;99.90;;;;;;5065237;28;20262;-85
2023/07/30 03:29:51;;;;;;;0.10;0.10;;;20.90;99.90;;;;;;5064203;28;20027;-76
2023/07/30 03:32:17;;;;;;;0.10;0.10;;;21.20;99.90;;;;;;5063660;28;20020;-78
2023/07/30 03:34:43;;;;;;;0.10;0.10;;;21.40;99.90;;;;;;5062162;28;20020;-81
2023/07/30 03:37:09;;;;;;;0.10;0.10;;;21.40;99.90;;;;;;5064535;28;20654;-81
2023/07/30 03:39:35;;;;;;;0.10;0.10;;;21.00;99.90;;;;;;5062164;28;20024;-80
2023/07/30 03:42:00;;;;;;;0.10;0.10;;;21.00;99.90;;;;;;5062703;28;20028;-75
2023/07/30 03:44:26;;;;;;;0.20;0.20;;;20.90;99.90;;;;;;5044297;28;20040;-82
2023/07/30 03:46:52;;;;;;;0.35;0.35;;;21.20;99.90;;;;;;5063058;28;20510;-78
2023/07/30 03:49:18;;;;;;;0.60;0.45;;;21.00;99.90;;;;;;5063583;28;20009;-89
2023/07/30 03:51:44;;;;;;;2.20;1.95;;;20.90;99.90;;;;;;5063377;28;20040;-93
2023/07/30 03:54:09;;;;;;;0.10;0.10;;;20.90;99.90;;;;;;5064009;28;20023;-86
2023/07/30 03:56:35;;;;;;;0.10;0.10;;;20.60;99.90;;;;;;5061080;28;20025;-85
2023/07/30 03:59:01;;;;;;;0.90;0.90;;;20.90;99.90;;;;;;5063533;28;20110;-79
2023/07/30 04:01:27;;;;;;;0.10;0.10;;;21.10;99.90;;;;;;5044895;28;20511;-76
2023/07/30 04:03:53;;;;;;;0.10;0.10;;;21.30;99.90;;;;;;5062408;28;20033;-92
2023/07/30 04:06:19;;;;;;;0.40;0.40;;;21.40;99.90;;;;;;5062526;28;20043;-73
2023/07/30 04:08:44;;;;;;;0.10;0.10;;;21.30;99.90;;;;;;5069893;28;20016;-87
2023/07/30 04:11:10;;;;;;;2.38;2.08;;;20.80;99.90;;;;;;5071254;28;20115;-86
2023/07/30 04:13:36;;;;;;;1.60;1.45;;;20.20;99.90;;;;;;5066561;28;20041;-82
2023/07/30 04:16:02;;;;;;;0.10;0.10;;;20.50;99.90;;;;;;5063784;28;20021;-84
2023/07/30 04:18:27;;;;;;;0.10;0.10;;;20.40;99.90;;;;;;5065520;28;20698;-78
2023/07/30 04:20:56;;;;;;;0.20;0.20;;;20.20;99.90;;;;;;5064385;28;20741;-86
2023/07/30 04:23:22;;;;;;;0.10;0.10;;;20.00;99.90;;;;;;5063360;28;20034;-84
2023/07/30 04:25:51;;;;;;;0.20;0.20;;;20.20;99.90;;;;;;5061462;28;20012;-75
2023/07/30 04:28:17;;;;;;;0.13;0.13;;;20.30;99.90;;;;;;5061283;28;20013;-74
2023/07/30 04:30:44;;;;;;;1.15;1.13;;;20.50;99.90;;;;;;5061570;28;20020;-93
2023/07/30 04:33:10;;;;;;;0.52;0.47;;;20.40;99.90;;;;;;5044008;28;20032;-74
2023/07/30 04:35:36;;;;;;;0.10;0.10;;;20.60;99.90;;;;;;5060588;28;20697;-79
2023/07/30 04:38:01;;;;;;;0.32;0.32;;;20.90;99.90;;;;;;5043418;28;20499;-88
2023/07/30 04:40:27;;;;;;;0.10;0.10;;;20.50;99.90;;;;;;5063615;28;20082;-92
2023/07/30 04:42:53;;;;;;;0.10;0.10;;;20.60;99.90;;;;;;5068702;28;20143;-79
2023/07/30 04:45:19;;;;;;;0.10;0.10;;;20.40;99.90;;;;;;5061862;28;20563;-76
2023/07/30 04:47:44;;;;;;;0.10;0.10;;;20.30;99.90;;;;;;5065441;28;20165;-75
2023/07/30 04:50:10;;;;;;;5.38;1.65;;;20.00;99.90;;;;;;5053657;28;20025;-87
2023/07/30 04:52:37;;;;;;;1.50;1.40;;;20.30;99.90;;;;;;5073432;28;20020;-74
2023/07/30 04:55:03;;;;;;;0.15;0.15;;;20.40;99.90;;;;;;5070324;28;20050;-87
2023/07/30 04:57:28;;;;;;;0.10;0.10;;;20.50;99.90;;;;;;5055488;28;20049;-77
2023/07/30 04:59:54;;;;;;;0.20;0.20;;;20.80;99.90;;;;;;5071799;28;20021;-79
2023/07/30 05:02:20;;;;;;;0.10;0.10;;;20.90;99.90;;;;;;5069867;28;20760;-85
2023/07/30 05:04:46;;;;;;;0.10;0.10;;;20.70;99.90;;;;;;5062617;28;20017;-74
2023/07/30 05:07:12;;;;;;;0.40;0.40;;;20.80;99.90;;;;;;5067574;28;20692;-75
2023/07/30 05:09:38;;;;;;;0.10;0.10;;;20.90;99.90;;;;;;5062599;28;20032;-73
2023/07/30 05:12:04;;;;;;;0.70;0.43;;;21.10;99.90;;;;;;5065176;28;20032;-82
2023/07/30 05:14:30;;;;;;;0.10;0.10;;;20.80;99.90;;;;;;5063576;28;20021;-74
2023/07/30 05:16:56;;;;;;;0.10;0.10;;;21.20;99.90;;;;;;5060022;28;20569;-74
2023/07/30 05:19:22;;;;;;;0.10;0.10;;;21.50;99.90;;;;;;5059930;28;20013;-77
2023/07/30 05:21:48;;;;;;;0.00;0.00;;;20.90;99.90;;;;;;5059478;28;20017;-92
2023/07/30 05:24:14;;;;;;;0.30;0.30;;;21.90;99.90;;;;;;5059721;28;20085;-75
2023/07/30 05:26:40;;;;;;;0.10;0.10;;;22.00;99.90;;;;;;5042087;28;20102;-84
2023/07/30 05:29:06;;;;;;;0.25;0.25;;;22.10;99.90;;;;;;5060291;28;20020;-74
2023/07/30 05:31:31;;;;;;;0.10;0.10;;;22.30;99.90;;;;;;5040364;28;20040;-80
2023/07/30 05:33:57;;;;;;;1.85;0.25;;;22.20;99.90;;;;;;5064603;28;20040;-83
2023/07/30 05:36:23;;;;;;;0.10;0.10;;;21.90;99.90;;;;;;5057651;28;20060;-77
2023/07/30 05:38:49;;;;;;;0.10;0.10;;;21.80;99.90;;;;;;5058652;28;20697;-75
2023/07/30 05:41:15;;;;;;;0.10;0.10;;;21.50;99.90;;;;;;5044144;28;20027;-79
2023/07/30 05:43:41;;;;;;;0.10;0.10;;;21.30;99.90;;;;;;5061537;28;20029;-75
2023/07/30 05:46:08;;;;;;;2.40;2.30;;;21.10;99.90;;;;;;5043703;28;20131;-76
2023/07/30 05:48:33;;;;;;;0.15;0.15;;;20.90;99.90;;;;;;5061497;28;20019;-77
2023/07/30 05:50:59;;;;;;;0.20;0.20;;;20.80;99.90;;;;;;5043538;28;20629;-76
2023/07/30 05:53:25;;;;;;;0.10;0.10;;;20.80;99.90;;;;;;5043528;28;20024;-86
2023/07/30 05:55:51;;;;;;;0.85;0.85;;;20.60;99.90;;;;;;5061480;28;20524;-80
2023/07/30 05:58:17;;;;;;;3.00;1.63;;;20.40;99.90;;;;;;5061190;28;20049;-74
2023/07/30 06:00:42;;;;;;;20.80;13.25;;;20.40;99.90;;;;;;5043439;28;20052;-77
2023/07/30 06:03:09;;;;;;;0.63;0.63;;;20.50;99.90;;;;;;5061386;28;20024;-78
2023/07/30 06:05:44;;;;;;;0.75;0.70;;;20.50;99.90;;;;;;5043437;28;20116;-75
2023/07/30 06:08:10;;;;;;;0.20;0.20;;;20.50;99.90;;;;;;5060941;28;20017;-74
2023/07/30 06:10:36;;;;;;;0.35;0.35;;;20.70;99.90;;;;;;5060362;28;20301;-79
2023/07/30 06:13:03;;;;;;;0.52;0.52;;;21.40;99.90;;;;;;5060907;28;20027;-80
2023/07/30 06:15:30;;;;;;;1.13;1.13;;;21.50;99.90;;;;;;5061746;28;20099;-82
2023/07/30 06:17:55;;;;;;;6.72;1.77;;;21.80;99.90;;;;;;5042488;28;20040;-80
2023/07/30 06:20:21;;;;;;;0.20;0.20;;;22.10;99.90;;;;;;5061160;28;20074;-76
2023/07/30 06:22:47;;;;;;;1.13;1.02;;;22.30;99.90;;;;;;5061305;28;20025;-73
2023/07/30 06:25:13;;;;;;;0.25;0.20;;;22.50;99.90;;;;;;5042262;28;20028;-78
2023/07/30 06:27:39;;;;;;;0.13;0.13;;;22.80;99.90;;;;;;5061199;28;20021;-73
2023/07/30 06:30:05;;;;;;;0.20;0.20;;;23.00;99.90;;;;;;5061215;28;20024;-73
2023/07/30 06:32:31;;;;;;;0.22;0.22;;;23.00;99.90;;;;;;5062145;28;20021;-79
2023/07/30 06:34:57;;;;;;;0.38;0.35;;;23.30;99.90;;;;;;5060389;28;20023;-71
2023/07/30 06:37:22;;;;;;;0.10;0.10;;;23.50;99.90;;;;;;5051289;28;20675;-73
2023/07/30 06:39:48;;;;;;;0.10;0.10;;;23.60;99.90;;;;;;5041322;28;20526;-75
2023/07/30 06:42:14;;;;;;;15.00;1.85;;;23.40;99.90;;;;;;5056406;28;20524;-71
2023/07/30 06:44:45;;;;;;;0.55;0.55;;;23.10;99.90;;;;;;5060459;28;20047;-78
2023/07/30 06:47:11;;;;;;;1.02;1.02;;;23.30;99.90;;;;;;5043169;28;20040;-75
2023/07/30 06:49:37;;;;;;;0.15;0.15;;;23.40;99.90;;;;;;5058937;28;20716;-77
2023/07/30 06:52:03;;;;;;;0.30;0.30;;;23.30;99.90;;;;;;5061000;28;20021;-74
2023/07/30 06:54:32;;;;;;;0.10;0.10;;;23.30;99.90;;;;;;5059959;28;20024;-74
2023/07/30 06:56:58;;;;;;;0.20;0.20;;;23.30;99.90;;;;;;5059771;28;20048;-81
2023/07/30 06:59:29;;;;;;;0.57;0.57;;;23.90;99.90;;;;;;5059632;28;20722;-75
2023/07/30 07:01:55;;;;;;;0.40;0.40;;;23.90;99.90;;;;;;5042576;28;20090;-75
2023/07/30 07:04:21;;;;;;;0.17;0.17;;;23.70;99.90;;;;;;5041927;28;20040;-73
2023/07/30 07:06:47;;;;;;;0.77;0.77;;;23.90;99.90;;;;;;5058424;28;20024;-85
2023/07/30 07:09:12;;;;;;;2.20;1.65;;;24.10;99.90;;;;;;5060172;28;20028;-75
2023/07/30 07:11:38;;;;;;;0.10;0.10;;;24.10;99.90;;;;;;5048285;28;20083;-74
2023/07/30 07:14:05;;;;;;;0.10;0.10;;;;;;;;;;5058993;28;20025;-85
2023/07/30 07:16:31;;;;;;;0.30;0.30;;;24.20;99.90;;;;;;5059650;28;20036;-73
2023/07/30 07:18:56;;;;;;;0.30;0.30;;;24.20;99.90;;;;;;5058579;28;20055;-75
2023/07/30 07:21:26;;;;;;;0.10;0.10;;;24.40;99.90;;;;;;5059942;28;20093;-74
2023/07/30 07:23:52;;;;;;;0.05;0.05;;;24.30;99.90;;;;;;5059323;28;20173;-73
2023/07/30 07:26:17;;;;;;;0.30;0.30;;;24.50;99.90;;;;;;5059303;28;20099;-74
2023/07/30 07:28:46;;;;;;;0.00;0.00;;;24.50;99.90;;;;;;5059319;28;20021;-75
2023/07/30 07:31:12;;;;;;;0.10;0.10;;;;;;;;;;5058721;28;20020;-75
2023/07/30 07:33:38;;;;;;;0.55;0.55;;;24.70;99.90;;;;;;5039500;28;20021;-75
2023/07/30 07:36:06;;;;;;;1.02;1.00;;;24.90;99.90;;;;;;5022510;28;20029;-74
2023/07/30 07:38:33;;;;;;;0.10;0.10;;;24.90;99.90;;;;;;5050505;28;20045;-79
2023/07/30 07:40:59;;;;;;;0.77;0.75;;;24.90;99.90;;;;;;5060602;28;20017;-75
2023/07/30 07:43:26;;;;;;;0.10;0.10;;;25.00;99.90;;;;;;5060116;28;20169;-78
2023/07/30 07:45:52;;;;;;;0.47;0.43;;;25.80;99.90;;;;;;5059094;28;20658;-83
2023/07/30 07:48:18;;;;;;;0.10;0.10;;;25.20;99.90;;;;;;5060102;28;20021;-75
2023/07/30 07:50:44;;;;;;;0.10;0.10;;;23.40;99.90;;;;;;5042086;28;20023;-80
2023/07/30 07:53:10;;;;;;;0.75;0.75;;;25.80;99.90;;;;;;5042458;28;20033;-77
2023/07/30 07:55:36;;;;;;;0.03;0.03;;;25.50;99.90;;;;;;5059668;28;20013;-76
2023/07/30 07:58:02;;;;;;;3.83;1.27;;;25.70;99.90;;;;;;5022625;28;20667;-74
2023/07/30 08:00:28;;;;;;;0.13;0.13;;;25.80;99.90;;;;;;5028052;28;20028;-76
2023/07/30 08:02:53;;;;;;;0.05;0.05;;;25.90;99.90;;;;;;5058676;28;20030;-76
2023/07/30 08:05:19;;;;;;;0.10;0.10;;;26.00;99.90;;;;;;5058917;28;20025;-78
2023/07/30 08:07:48;;;;;;;0.20;0.20;;;26.10;99.90;;;;;;5041141;28;20101;-77
2023/07/30 08:10:14;;;;;;;0.20;0.20;;;26.30;99.90;;;;;;5059657;28;20048;-83
2023/07/30 08:12:40;;;;;;;0.00;0.00;;;26.50;99.90;;;;;;5060188;28;20486;-77
2023/07/30 08:15:07;;;;;;;0.20;0.20;;;26.50;99.90;;;;;;5060365;28;20044;-83
2023/07/30 08:17:35;;;;;;;0.10;0.10;;;25.30;99.90;;;;;;5060885;28;20415;-79
2023/07/30 08:20:01;;;;;;;0.00;0.00;;;26.70;99.90;;;;;;5060049;28;20047;-80
2023/07/30 08:22:36;;;;;;;0.10;0.10;;;26.90;99.90;;;;;;5041372;28;20043;-79
2023/07/30 08:25:02;;;;;;;0.00;0.00;;;29.30;99.90;;;;;;5059108;28;20050;-83
2023/07/30 08:27:28;;;;;;;0.00;0.00;;;27.20;99.90;;;;;;5042691;28;20024;-82
2023/07/30 08:29:54;;;;;;;0.65;0.65;;;27.30;99.90;;;;;;5059212;28;20051;-80
2023/07/30 08:32:20;;;;;;;0.10;0.10;;;27.20;99.90;;;;;;5042188;28;20198;-80
2023/07/30 08:34:46;;;;;;;0.05;0.05;;;27.20;99.90;;;;;;5061131;28;20290;-79
2023/07/30 08:37:15;;;;;;;0.10;0.10;;;27.40;99.90;;;;;;5061030;28;20085;-79
2023/07/30 08:39:41;;;;;;;0.80;0.80;;;;;;;;;;5040785;28;20633;-82
2023/07/30 08:42:07;;;;;;;0.47;0.43;;;27.60;99.10;;;;;;5059718;28;20036;-88
2023/07/30 08:44:33;;;;;;;0.60;0.40;;;27.60;99.20;;;;;;5058560;28;20039;-79
2023/07/30 08:46:59;;;;;;;0.10;0.10;;;27.70;99.10;;;;;;5040331;28;20111;-89
2023/07/30 08:49:32;;;;;;;0.47;0.25;;;29.60;99.70;;;;;;5060279;28;20597;-80
2023/07/30 08:51:59;;;;;;;0.00;0.00;;;27.80;98.70;;;;;;5042058;28;20025;-87
2023/07/30 08:54:30;;;;;;;0.45;0.45;;;28.10;98.20;;;;;;5041661;28;20459;-78
2023/07/30 08:57:00;;;;;;;0.32;0.13;;;27.90;98.20;;;;;;5040952;28;20515;-87
2023/07/30 08:59:30;;;;;;;0.20;0.20;;;27.90;97.40;;;;;;5059729;28;20020;-81
2023/07/30 09:02:09;;;;;;;0.13;0.13;;;28.00;97.20;;;;;;5059533;28;20081;-78
2023/07/30 09:04:40;;;;;;;0.05;0.05;;;28.40;97.60;;;;;;5039667;28;20443;-85
2023/07/30 09:07:11;;;;;;;0.38;0.38;;;28.40;97.30;;;;;;5059955;28;20544;-86
2023/07/30 09:09:38;;;;;;;0.45;0.28;;;28.80;95.60;;;;;;5060630;28;20024;-87
2023/07/30 09:12:15;;;;;;;0.25;0.20;;;28.70;95.80;;;;;;5044208;28;20036;-86
2023/07/30 09:14:44;;;;;;;0.10;0.10;;;28.90;95.20;;;;;;5061022;28;20025;-85
2023/07/30 09:17:18;;;;;;;0.00;0.00;;;28.90;94.40;;;;;;5044104;28;20021;-78
2023/07/30 09:19:46;;;;;;;0.10;0.10;;;29.00;94.50;;;;;;5043972;28;20124;-88
2023/07/30 09:22:40;;;;;;;0.00;0.00;;;29.00;93.70;;;;;;5061718;28;20178;-82
2023/07/30 09:25:09;;;;;;;1.00;1.00;;;29.10;92.50;;;;;;5042232;28;20479;-77
2023/07/30 09:27:35;;;;;;;0.10;0.10;;;29.20;91.10;;;;;;5040754;28;20020;-82
2023/07/30 09:30:33;;;;;;;0.20;0.20;;;29.20;91.00;;;;;;5039645;28;20040;-79
2023/07/30 09:33:10;;;;;;;0.00;0.00;;;27.20;89.20;;;;;;5382634;23;20067;-80
2023/07/30 09:35:36;;;;;;;0.30;0.30;;;;;;;;;;5056515;28;20107;-85
2023/07/30 09:38:06;;;;;;;0.00;0.00;;;29.40;90.20;;;;;;5058973;28;20235;-78
2023/07/30 09:40:33;;;;;;;0.35;0.35;;;26.00;88.80;;;;;;5058058;28;20017;-88
2023/07/30 09:43:05;;;;;;;0.00;0.00;;;29.60;90.60;;;;;;5060163;28;20021;-92
2023/07/30 09:45:35;;;;;;;;;;;29.80;90.30;;;;;;5058420;28;20414;-87
2023/07/30 09:48:04;;;;;;;0.03;0.03;;;29.90;90.60;;;;;;5058252;28;20354;-83
2023/07/30 09:50:31;;;;;;;0.20;0.20;;;29.90;90.20;;;;;;5042440;28;20321;-92
2023/07/30 09:53:04;;;;;;;0.10;0.10;;;30.00;90.70;;;;;;5059701;28;20311;-79
2023/07/30 09:55:30;;;;;;;0.17;0.17;;;30.10;89.60;;;;;;5057388;28;20017;-92
2023/07/30 09:57:57;;;;;;;0.00;0.00;;;30.10;90.30;;;;;;5059938;28;20110;-80
2023/07/30 10:00:23;;;;;;;0.20;0.15;;;30.30;88.30;;;;;;5059565;28;20017;-79
2023/07/30 10:02:54;;;;;;;0.00;0.00;;;30.30;88.00;;;;;;5059729;28;20568;-91
2023/07/30 10:05:28;;;;;;;1.40;1.30;;;30.50;88.40;;;;;;5060817;28;20036;-87
2023/07/30 10:08:11;;;;;;;0.28;0.28;;;30.40;89.20;;;;;;5079724;28;20756;-79
2023/07/30 10:10:37;;;;;;;0.15;0.15;;;30.40;90.10;;;;;;5079285;28;20016;-83
2023/07/30 10:13:08;;;;;;;0.70;0.68;;;30.80;90.10;;;;;;5059792;28;20248;-79
2023/07/30 10:15:35;;;;;;;0.10;0.10;;;30.10;88.20;;;;;;5060501;28;20394;-78
2023/07/30 10:18:01;;;;;;;0.77;0.70;;;30.90;89.80;;;;;;5059960;28;20024;-78
2023/07/30 10:20:31;;;;;;;0.15;0.15;;;30.70;89.00;;;;;;5061954;28;20035;-79
2023/07/30 10:22:59;;;;;;;0.00;0.00;;;30.80;89.20;;;;;;5061321;28;20071;-92
2023/07/30 10:25:30;;;;;;;0.20;0.20;;;31.10;88.00;;;;;;5083583;28;20528;-84
2023/07/30 10:27:58;;;;;;;0.00;0.00;;;31.40;87.00;;;;;;5052451;28;20089;-77
2023/07/30 10:30:31;;;;;;;0.10;0.10;;;31.50;86.00;;;;;;5069501;28;20097;-81
2023/07/30 10:32:59;;;;;;;0.98;0.70;;;30.80;86.50;;;;;;5085169;28;20032;-82
2023/07/30 10:35:46;;;;;;;0.45;0.35;;;31.10;86.70;;;;;;5082792;28;20099;-80
2023/07/30 10:38:20;;;;;;;0.38;0.38;;;30.80;83.60;;;;;;5083690;28;20586;-91
2023/07/30 10:41:06;;;;;;;0.50;0.50;;;31.00;84.20;;;;;;5083456;28;20069;-86
2023/07/30 10:43:39;;;;;;;0.28;0.20;;;31.60;84.60;;;;;;5083185;28;20170;-78
2023/07/30 10:46:06;;;;;;;0.52;0.40;;;31.70;82.40;;;;;;5081639;28;20047;-88
2023/07/30 10:48:37;;;;;;;2.72;0.65;;;31.80;82.80;;;;;;5092084;28;20028;-82
2023/07/30 10:51:09;;;;;;;0.15;0.15;;;30.70;79.70;;;;;;5097076;28;20023;-86
2023/07/30 10:53:42;;;;;;;0.28;0.25;;;32.00;80.80;;;;;;5089428;28;20201;-79
2023/07/30 10:56:24;;;;;;;0.10;0.10;;;32.10;82.60;;;;;;5064369;28;20020;-80
2023/07/30 10:58:55;;;;;;;0.13;0.13;;;32.80;82.40;;;;;;5063583;28;20051;-82
2023/07/30 11:01:23;;;;;;;1.17;0.52;;;32.40;82.50;;;;;;5064229;28;20498;-82
2023/07/30 11:03:59;;;;;;;0.98;0.65;;;32.60;81.40;;;;;;5063687;28;20027;-79
2023/07/30 11:06:26;;;;;;;0.00;0.00;;;33.20;81.00;;;;;;5039402;28;20087;-80
2023/07/30 11:08:52;;;;;;;0.20;0.20;;;32.70;81.10;;;;;;5038580;28;20109;-90
2023/07/30 11:11:24;;;;;;;0.30;0.30;;;32.10;83.80;;;;;;5023894;28;20295;-90
2023/07/30 11:13:50;;;;;;;0.27;0.27;;;31.90;81.80;;;;;;5024026;28;20288;-88
2023/07/30 11:16:16;;;;;;;0.63;0.30;;;31.30;82.20;;;;;;5039560;28;20104;-86
2023/07/30 11:18:43;;;;;;;0.32;0.30;;;29.90;79.40;;;;;;5023946;28;20068;-89
2023/07/30 11:21:11;;;;;;;0.00;0.00;;;30.80;78.10;;;;;;5040559;28;20052;-89
2023/07/30 11:23:39;;;;;;;0.15;0.15;;;30.50;79.10;;;;;;5047027;28;20029;-90
2023/07/30 11:26:07;;;;;;;0.20;0.20;;;30.10;80.40;;;;;;5025704;28;20100;-93
2023/07/30 11:28:34;;;;;;;0.00;0.00;;;30.00;81.40;;;;;;5011086;28;20033;-88
2023/07/30 11:31:20;;;;;;;0.20;0.20;;;31.90;84.70;;;;;;5040712;28;20550;-84
2023/07/30 11:33:47;;;;;;;0.00;0.00;;;30.30;89.00;;;;;;5048683;28;20391;-83
2023/07/30 11:36:21;;;;;;;0.60;0.60;;;30.40;90.00;;;;;;5048291;28;20036;-80
2023/07/30 11:38:48;;;;;;;0.10;0.10;;;30.20;91.00;;;;;;5041985;28;20605;-84
2023/07/30 11:41:14;;;;;;;0.25;0.25;;;30.20;91.90;;;;;;5040835;28;20031;-76
2023/07/30 11:43:45;;;;;;;0.75;0.75;;;29.90;92.00;;;;;;5038512;28;20131;-89
2023/07/30 11:46:16;;;;;;;0.10;0.10;;;30.30;91.30;;;;;;5040757;28;20021;-79
2023/07/30 11:48:44;;;;;;;0.30;0.30;;;30.30;90.30;;;;;;5041521;28;20025;-84
2023/07/30 11:51:29;;;;;;;0.08;0.08;;;30.00;90.30;;;;;;5041481;28;20017;-82
2023/07/30 11:54:01;;;;;;;1.15;0.65;;;29.90;91.70;;;;;;5041196;28;20037;-81
2023/07/30 11:56:32;;;;;;;0.10;0.10;;;29.40;92.50;;;;;;5041671;28;20024;-83
2023/07/30 11:59:07;;;;;;;0.10;0.10;;;28.80;94.20;;;;;;5039871;28;20029;-82
2023/07/30 12:01:36;;;;;;;0.35;0.35;;;28.20;95.20;;;;;;5041333;28;20104;-89
2023/07/30 12:04:06;;;;;;;0.15;0.15;;;27.90;96.80;;;;;;5041476;28;20091;-90
2023/07/30 12:06:40;;;;;;;0.03;0.03;;;27.60;98.00;;;;;;5040702;28;20025;-91
2023/07/30 12:09:18;;;;;;;0.43;0.25;;;27.80;99.30;;;;;;5041635;28;20025;-88
2023/07/30 12:12:00;;;;;;;4.30;1.15;;;28.00;99.00;;;;;;5041343;28;20021;-86
2023/07/30 12:14:50;;;;;;;0.00;0.00;;;26.90;98.50;;;;;;5039008;28;20540;-86
2023/07/30 12:17:27;;;;;;;0.13;0.13;;;29.30;99.20;;;;;;4960052;28;20043;-90
2023/07/30 12:19:53;;;;;;;0.10;0.10;;;30.70;97.20;;;;;;4960296;28;20045;-89
2023/07/30 12:22:19;;;;;;;0.10;0.10;;;31.00;95.50;;;;;;4959965;28;20106;-87
2023/07/30 12:24:47;;;;;;;1.25;1.08;;;31.60;95.30;;;;;;4960509;28;20348;-86
2023/07/30 12:27:13;;;;;;;0.35;0.15;;;31.70;94.40;;;;;;4943586;28;20066;-82
2023/07/30 12:29:39;;;;;;;15.75;1.30;;;31.80;95.00;;;;;;4941221;28;20066;-83
2023/07/30 12:32:05;;;;;;;0.25;0.25;;;32.20;94.20;;;;;;4959521;28;20058;-82
2023/07/30 12:34:30;;;;;;;0.47;0.47;;;31.80;94.00;;;;;;4980555;28;20057;-82
2023/07/30 12:37:02;;;;;;;1.33;1.25;;;31.60;93.40;;;;;;4981547;28;20038;-80
2023/07/30 12:39:28;;;;;;;1.85;1.20;;;31.10;94.30;;;;;;4962001;28;20027;-90
2023/07/30 12:41:54;;;;;;;0.10;0.10;;;;;;;;;;4964314;28;20089;-91
2023/07/30 12:44:20;;;;;;;0.10;0.10;;;30.30;94.40;;;;;;4982419;28;20033;-89
2023/07/30 12:46:46;;;;;;;0.20;0.20;;;29.20;95.90;;;;;;4979616;28;20018;-87
2023/07/30 12:49:12;;;;;;;0.52;0.40;;;29.30;96.70;;;;;;4983076;28;20269;-89
2023/07/30 12:51:38;;;;;;;0.17;0.05;;;28.90;97.20;;;;;;4964849;28;20559;-92
2023/07/30 12:54:04;;;;;;;0.10;0.10;;;;;;;;;;5003557;28;20043;-84